Flight Track Log - Related Links

Times and Time Zones

All times are in EDT time to prevent confusion due to time zone crossing. See the UAL4843 flight status page for this flight to view local times or setup timezone preferences in your user account.

Time Position Orientation Groundspeed Altitude Reporting Facility
EDT Latitude Longitude Course Direction KTS MPH feet Rate Location/Type
Wed 01:33:19 PM 42.9500 -78.7167 90° East 116 133 1,400  Level Buffalo TRACON
Wed 01:34:31 PM 42.9500 -78.6667 90° East 160 184 2,200 773 Climbing Buffalo TRACON
Wed 01:35:31 PM 42.9167 -78.6167 132° Southeast 186 214 3,100 837 Climbing Buffalo TRACON
Wed 01:35:57 PM 42.8933 -78.6022 156° South 190 219 3,400 907 Climbing Cleveland Center
Wed 01:36:57 PM 42.8500 -78.6292 205° Southwest 174 200 4,400 1,000 Climbing Cleveland Center
Wed 01:37:57 PM 42.8028 -78.6647 209° Southwest 174 200 5,400 1,100 Climbing Cleveland Center
Wed 01:38:57 PM 42.7556 -78.7028 211° Southwest 194 223 6,600 1,150 Climbing Cleveland Center
Wed 01:39:57 PM 42.7103 -78.7353 208° Southwest 188 216 7,700 1,000 Climbing Cleveland Center
Wed 01:40:57 PM 42.6669 -78.7703 211° Southwest 188 216 8,600 850 Climbing Cleveland Center
Wed 01:41:57 PM 42.6406 -78.8164 232° Southwest 173 199 9,400 850 Climbing Cleveland Center
Wed 01:42:57 PM 42.6183 -78.8678 240° Southwest 173 199 10,300 950 Climbing Cleveland Center
Wed 01:43:57 PM 42.5900 -78.9219 235° Southwest 173 199 11,300 850 Climbing Cleveland Center
Wed 01:44:57 PM 42.5678 -78.9764 241° Southwest 173 199 12,000 350 Climbing Cleveland Center
Wed 01:45:57 PM 42.5394 -79.0389 238° Southwest 181 208 12,000  Level Cleveland Center
Wed 01:46:57 PM 42.5092 -79.1072 239° Southwest 199 229 12,000 1,000 Level Cleveland Center
Wed 01:47:57 PM 42.4806 -79.1614 234° Southwest 206 237 14,000 1,000 Climbing Cleveland Center
Wed 01:48:57 PM 42.4500 -79.2242 237° Southwest 182 209 14,000  Level Cleveland Center
Wed 01:49:57 PM 42.4217 -79.2867 238° Southwest 190 219 14,000  Level Cleveland Center
Wed 01:50:57 PM 42.3911 -79.3492 237° Southwest 196 226 14,000  Level Cleveland Center
Wed 01:51:57 PM 42.3606 -79.4142 238° Southwest 201 231 14,000  Level Cleveland Center
Wed 01:52:57 PM 42.3300 -79.4794 238° Southwest 201 231 14,000  Level Cleveland Center
Wed 01:53:57 PM 42.3033 -79.5361 238° Southwest 207 238 14,000  Level Cleveland Center
Wed 01:54:57 PM 42.2767 -79.5953 239° Southwest 189 217 14,000  Level Cleveland Center
Wed 01:55:57 PM 42.2481 -79.6492 234° Southwest 189 217 14,000  Level Cleveland Center
Wed 01:56:57 PM 42.2172 -79.7114 236° Southwest 195 224 14,000  Level Cleveland Center
Wed 01:57:57 PM 42.1864 -79.7733 236° Southwest 195 224 14,000  Level Cleveland Center
Wed 01:58:57 PM 42.1556 -79.8353 236° Southwest 195 224 14,000 -50 Level Cleveland Center
Wed 01:59:57 PM 42.1267 -79.9000 239° Southwest 200 230 13,900 -50 Descending Cleveland Center
Wed 02:00:57 PM 42.0958 -79.9619 236° Southwest 200 230 13,900  Level Cleveland Center
Wed 02:01:57 PM 42.0628 -80.0294 237° Southwest 210 242 13,900  Level Cleveland Center
Wed 02:02:57 PM 42.0339 -80.0967 240° Southwest 215 247 13,900  Level Cleveland Center
Wed 02:03:57 PM 42.0050 -80.1583 238° Southwest 215 247 13,900  Level Cleveland Center
Wed 02:04:57 PM 41.9739 -80.2228 237° Southwest 215 247 13,900  Level Cleveland Center
Wed 02:05:57 PM 41.9431 -80.2844 236° Southwest 215 247 13,900  Level Cleveland Center
Wed 02:06:57 PM 41.9097 -80.3375 230° Southwest 215 247 13,900 -33 Level Cleveland Center
Wed 02:08:57 PM 41.7972 -80.4022 203° Southwest 220 253 13,800 -200 Descending Cleveland Center
Wed 02:09:57 PM 41.7681 -80.4606 236° Southwest 203 234 13,300 -550 Descending Cleveland Center
Wed 02:10:57 PM 41.7453 -80.5219 244° Southwest 196 226 12,700 -550 Descending Cleveland Center
Wed 02:11:57 PM 41.7244 -80.5858 246° West 191 220 12,200 -500 Descending Cleveland Center
Wed 02:12:57 PM 41.7014 -80.6472 243° Southwest 191 220 11,700 -450 Descending Cleveland Center
Wed 02:13:57 PM 41.6764 -80.7194 245° Southwest 196 226 11,300 -200 Descending Cleveland Center
Wed 02:15:00 PM 41.6275 -80.7581 211° Southwest  Level FlightAware Approximate
Wed 02:15:57 PM 41.6303 -80.8442 211° Southwest 196 226 11,100  Level Cleveland Center
Wed 02:16:57 PM 41.6050 -80.9164 245° Southwest 196 226 10,900 -337 Descending Cleveland Center
Wed 02:17:26 PM 41.5947 -80.9497 248° West 217 250 10,600 -554 Descending Cleveland Center
Wed 02:18:02 PM 41.5778 -80.9939 243° Southwest 224 258 10,300 -593 Descending Cleveland Center
Wed 02:18:57 PM 41.5608 -81.0633 252° West 219 252 9,700 -626 Descending Cleveland Center
Wed 02:19:57 PM 41.5500 -81.1408 259° West 214 246 9,100 -614 Descending Cleveland Center
Wed 02:21:04 PM 41.5456 -81.2239 266° West 208 239 8,400 -950 Descending Cleveland Center
Wed 02:21:57 PM 41.5428 -81.3017 267° West 220 253 7,200 -1,168 Descending Cleveland Center
Wed 02:22:57 PM 41.5383 -81.3736 265° West 225 259 6,200 -1,200 Descending Cleveland Center
Wed 02:23:12 PM 41.5381 -81.4014 269° West 215 247 5,700 -1,100 Descending Cleveland Center
Wed 02:23:57 PM 41.5336 -81.4514 263° West 220 253 5,100 -590 Descending Cleveland Center
Wed 02:24:13 PM 41.5333 -81.4792 269° West 216 249 5,100 -800 Level Cleveland Center
Wed 02:24:57 PM 41.5286 -81.5317 263° West 214 246 4,300 -984 Descending Cleveland Center
Wed 02:25:14 PM 41.5283 -81.5594 269° West 210 242 4,100 -200 Descending Cleveland Center
Wed 02:25:57 PM 41.5239 -81.6064 263° West 214 246 4,100  Level Cleveland Center
Wed 02:26:14 PM 41.5214 -81.6397 264° West 208 239 4,100 -200 Level Cleveland Center
Wed 02:26:57 PM 41.5147 -81.6842 259° West 214 246 3,900 -689 Descending Cleveland Center
Wed 02:27:15 PM 41.5019 -81.7114 238° Southwest 215 247 3,400 -1,063 Descending Cleveland Center
Wed 02:28:16 PM 41.4703 -81.7608 229° Southwest 164 189 2,500 -836 Descending Cleveland Center
Wed 02:29:17 PM 41.4428 -81.8075 232° Southwest 153 176 1,700 -689 Descending Cleveland Center
Wed 02:30:18 PM 41.4194 -81.8403 226° Southwest 108 124 1,100 -590 Descending Cleveland Center
Wed 02:32:00 PM 41.4000 -81.8500 255° West  Level FlightAware Approximate

Login

Don't have an account? Register now (free) for customized features, flight alerts, and more!